sensor_id;sensor_type;location;lat;lon;timestamp;temperature;humidity
9033;DHT22;4551;53.164;8.210;2023-08-21T00:01:35;19.30;99.90
9033;DHT22;4551;53.164;8.210;2023-08-21T00:04:03;19.30;99.90
9033;DHT22;4551;53.164;8.210;2023-08-21T00:06:32;19.20;99.90
9033;DHT22;4551;53.164;8.210;2023-08-21T00:09:00;19.10;99.90
9033;DHT22;4551;53.164;8.210;2023-08-21T00:11:29;19.10;99.90
9033;DHT22;4551;53.164;8.210;2023-08-21T00:13:57;19.10;99.90
9033;DHT22;4551;53.164;8.210;2023-08-21T00:16:25;19.10;99.90
9033;DHT22;4551;53.164;8.210;2023-08-21T00:18:55;19.10;99.90
9033;DHT22;4551;53.164;8.210;2023-08-21T00:21:23;19.10;99.90
9033;DHT22;4551;53.164;8.210;2023-08-21T00:23:52;19.10;99.90
9033;DHT22;4551;53.164;8.210;2023-08-21T00:26:20;19.00;99.90
9033;DHT22;4551;53.164;8.210;2023-08-21T00:28:48;19.00;99.90
9033;DHT22;4551;53.164;8.210;2023-08-21T00:31:16;19.00;99.90
9033;DHT22;4551;53.164;8.210;2023-08-21T00:33:44;19.00;99.90
9033;DHT22;4551;53.164;8.210;2023-08-21T00:36:12;18.90;99.90
9033;DHT22;4551;53.164;8.210;2023-08-21T00:38:40;18.90;99.90
9033;DHT22;4551;53.164;8.210;2023-08-21T00:41:11;18.90;99.90
9033;DHT22;4551;53.164;8.210;2023-08-21T00:43:39;18.90;99.90
9033;DHT22;4551;53.164;8.210;2023-08-21T00:46:07;18.80;99.90
9033;DHT22;4551;53.164;8.210;2023-08-21T00:48:35;18.90;99.90
9033;DHT22;4551;53.164;8.210;2023-08-21T00:51:03;18.80;99.90
9033;DHT22;4551;53.164;8.210;2023-08-21T00:53:33;18.80;99.90
9033;DHT22;4551;53.164;8.210;2023-08-21T00:56:01;18.70;99.90
9033;DHT22;4551;53.164;8.210;2023-08-21T00:58:31;18.60;99.90
9033;DHT22;4551;53.164;8.210;2023-08-21T01:00:59;18.60;99.90
9033;DHT22;4551;53.164;8.210;2023-08-21T01:03:27;18.60;99.90
9033;DHT22;4551;53.164;8.210;2023-08-21T01:05:55;18.60;99.90
9033;DHT22;4551;53.164;8.210;2023-08-21T01:08:25;18.60;99.90
9033;DHT22;4551;53.164;8.210;2023-08-21T01:10:58;18.50;99.90
9033;DHT22;4551;53.164;8.210;2023-08-21T01:13:33;18.50;99.90
9033;DHT22;4551;53.164;8.210;2023-08-21T01:16:02;18.40;99.90
9033;DHT22;4551;53.164;8.210;2023-08-21T01:18:31;18.40;99.90
9033;DHT22;4551;53.164;8.210;2023-08-21T01:21:01;18.40;99.90
9033;DHT22;4551;53.164;8.210;2023-08-21T01:23:32;18.30;99.90
9033;DHT22;4551;53.164;8.210;2023-08-21T01:26:00;18.30;99.90
9033;DHT22;4551;53.164;8.210;2023-08-21T01:28:28;18.30;99.90
9033;DHT22;4551;53.164;8.210;2023-08-21T01:30:59;18.30;99.90
9033;DHT22;4551;53.164;8.210;2023-08-21T01:33:29;18.30;99.90
9033;DHT22;4551;53.164;8.210;2023-08-21T01:35:58;18.20;99.90
9033;DHT22;4551;53.164;8.210;2023-08-21T01:38:26;18.20;99.90
9033;DHT22;4551;53.164;8.210;2023-08-21T01:40:55;18.20;99.90
9033;DHT22;4551;53.164;8.210;2023-08-21T01:43:22;18.10;99.90
9033;DHT22;4551;53.164;8.210;2023-08-21T01:45:51;18.00;99.90
9033;DHT22;4551;53.164;8.210;2023-08-21T01:48:19;18.00;99.90
9033;DHT22;4551;53.164;8.210;2023-08-21T01:50:47;17.90;99.90
9033;DHT22;4551;53.164;8.210;2023-08-21T01:53:15;17.80;99.90
9033;DHT22;4551;53.164;8.210;2023-08-21T01:55:43;17.80;99.90
9033;DHT22;4551;53.164;8.210;2023-08-21T01:58:12;17.70;99.90
9033;DHT22;4551;53.164;8.210;2023-08-21T02:00:40;17.70;99.90
9033;DHT22;4551;53.164;8.210;2023-08-21T02:03:08;17.70;99.90
9033;DHT22;4551;53.164;8.210;2023-08-21T02:05:37;17.60;99.90
9033;DHT22;4551;53.164;8.210;2023-08-21T02:08:05;17.40;99.90
9033;DHT22;4551;53.164;8.210;2023-08-21T02:10:33;17.40;99.90
9033;DHT22;4551;53.164;8.210;2023-08-21T02:13:01;17.40;99.90
9033;DHT22;4551;53.164;8.210;2023-08-21T02:15:31;17.30;99.90
9033;DHT22;4551;53.164;8.210;2023-08-21T02:17:59;17.30;99.90
9033;DHT22;4551;53.164;8.210;2023-08-21T02:20:27;17.30;99.90
9033;DHT22;4551;53.164;8.210;2023-08-21T02:22:55;17.30;99.90
9033;DHT22;4551;53.164;8.210;2023-08-21T02:25:23;17.30;99.90
9033;DHT22;4551;53.164;8.210;2023-08-21T02:27:51;17.30;99.90
9033;DHT22;4551;53.164;8.210;2023-08-21T02:30:34;17.30;99.90
9033;DHT22;4551;53.164;8.210;2023-08-21T02:33:02;17.30;99.90
9033;DHT22;4551;53.164;8.210;2023-08-21T02:35:30;17.30;99.90
9033;DHT22;4551;53.164;8.210;2023-08-21T02:37:59;17.30;99.90
9033;DHT22;4551;53.164;8.210;2023-08-21T02:40:27;17.30;99.90
9033;DHT22;4551;53.164;8.210;2023-08-21T02:42:55;17.20;99.90
9033;DHT22;4551;53.164;8.210;2023-08-21T02:45:23;17.20;99.90
9033;DHT22;4551;53.164;8.210;2023-08-21T02:47:52;17.20;99.90
9033;DHT22;4551;53.164;8.210;2023-08-21T02:50:20;17.10;99.90
9033;DHT22;4551;53.164;8.210;2023-08-21T02:52:48;17.10;99.90
9033;DHT22;4551;53.164;8.210;2023-08-21T02:55:16;17.20;99.90
9033;DHT22;4551;53.164;8.210;2023-08-21T02:57:44;17.20;99.90
9033;DHT22;4551;53.164;8.210;2023-08-21T03:00:12;17.20;99.90
9033;DHT22;4551;53.164;8.210;2023-08-21T03:02:40;17.20;99.90
9033;DHT22;4551;53.164;8.210;2023-08-21T03:05:12;17.20;99.90
9033;DHT22;4551;53.164;8.210;2023-08-21T03:07:41;17.20;99.90
9033;DHT22;4551;53.164;8.210;2023-08-21T03:10:09;17.20;99.90
9033;DHT22;4551;53.164;8.210;2023-08-21T03:12:37;17.20;99.90
9033;DHT22;4551;53.164;8.210;2023-08-21T03:15:06;17.20;99.90
9033;DHT22;4551;53.164;8.210;2023-08-21T03:17:34;17.20;99.90
9033;DHT22;4551;53.164;8.210;2023-08-21T03:20:02;17.20;99.90
9033;DHT22;4551;53.164;8.210;2023-08-21T03:22:32;17.20;99.90
9033;DHT22;4551;53.164;8.210;2023-08-21T03:25:01;17.20;99.90
9033;DHT22;4551;53.164;8.210;2023-08-21T03:27:29;17.20;99.90
9033;DHT22;4551;53.164;8.210;2023-08-21T03:29:57;17.20;99.90
9033;DHT22;4551;53.164;8.210;2023-08-21T03:32:28;17.20;99.90
9033;DHT22;4551;53.164;8.210;2023-08-21T03:34:56;17.10;99.90
9033;DHT22;4551;53.164;8.210;2023-08-21T03:37:24;17.10;99.90
9033;DHT22;4551;53.164;8.210;2023-08-21T03:39:53;17.10;99.90
9033;DHT22;4551;53.164;8.210;2023-08-21T03:42:22;17.10;99.90
9033;DHT22;4551;53.164;8.210;2023-08-21T03:44:50;17.10;99.90
9033;DHT22;4551;53.164;8.210;2023-08-21T03:47:18;17.10;99.90
9033;DHT22;4551;53.164;8.210;2023-08-21T03:49:46;17.10;99.90
9033;DHT22;4551;53.164;8.210;2023-08-21T03:52:14;17.10;99.90
9033;DHT22;4551;53.164;8.210;2023-08-21T03:54:43;17.40;99.90
9033;DHT22;4551;53.164;8.210;2023-08-21T03:57:12;17.00;99.90
9033;DHT22;4551;53.164;8.210;2023-08-21T03:59:40;17.00;99.90
9033;DHT22;4551;53.164;8.210;2023-08-21T04:02:08;17.00;99.90
9033;DHT22;4551;53.164;8.210;2023-08-21T04:04:38;17.00;99.90
9033;DHT22;4551;53.164;8.210;2023-08-21T04:07:06;16.90;99.90
9033;DHT22;4551;53.164;8.210;2023-08-21T04:09:34;16.90;99.90
9033;DHT22;4551;53.164;8.210;2023-08-21T04:12:02;16.90;99.90
9033;DHT22;4551;53.164;8.210;2023-08-21T04:14:31;16.90;99.90
9033;DHT22;4551;53.164;8.210;2023-08-21T04:16:59;16.90;99.90
9033;DHT22;4551;53.164;8.210;2023-08-21T04:19:27;16.90;99.90
9033;DHT22;4551;53.164;8.210;2023-08-21T04:21:59;17.40;99.90
9033;DHT22;4551;53.164;8.210;2023-08-21T04:24:27;16.90;99.90
9033;DHT22;4551;53.164;8.210;2023-08-21T04:26:55;16.90;99.90
9033;DHT22;4551;53.164;8.210;2023-08-21T04:29:23;16.80;99.90
9033;DHT22;4551;53.164;8.210;2023-08-21T04:31:52;16.80;99.90
9033;DHT22;4551;53.164;8.210;2023-08-21T04:34:20;16.80;99.90
9033;DHT22;4551;53.164;8.210;2023-08-21T04:36:48;16.80;99.90
9033;DHT22;4551;53.164;8.210;2023-08-21T04:39:16;16.80;99.90
9033;DHT22;4551;53.164;8.210;2023-08-21T04:41:44;16.80;99.90
9033;DHT22;4551;53.164;8.210;2023-08-21T04:44:12;16.70;99.90
9033;DHT22;4551;53.164;8.210;2023-08-21T04:46:40;16.70;99.90
9033;DHT22;4551;53.164;8.210;2023-08-21T04:49:10;16.60;99.90
9033;DHT22;4551;53.164;8.210;2023-08-21T04:51:38;16.60;99.90
9033;DHT22;4551;53.164;8.210;2023-08-21T04:54:06;16.60;99.90
9033;DHT22;4551;53.164;8.210;2023-08-21T04:56:34;16.60;99.90
9033;DHT22;4551;53.164;8.210;2023-08-21T04:59:02;16.60;99.90
9033;DHT22;4551;53.164;8.210;2023-08-21T05:01:30;16.60;99.90
9033;DHT22;4551;53.164;8.210;2023-08-21T05:03:58;16.60;99.90
9033;DHT22;4551;53.164;8.210;2023-08-21T05:06:28;16.60;99.90
9033;DHT22;4551;53.164;8.210;2023-08-21T05:08:56;16.60;99.90
9033;DHT22;4551;53.164;8.210;2023-08-21T05:11:24;16.60;99.90
9033;DHT22;4551;53.164;8.210;2023-08-21T05:13:52;16.70;99.90
9033;DHT22;4551;53.164;8.210;2023-08-21T05:16:20;16.70;99.90
9033;DHT22;4551;53.164;8.210;2023-08-21T05:18:48;16.70;99.90
9033;DHT22;4551;53.164;8.210;2023-08-21T05:21:16;16.70;99.90
9033;DHT22;4551;53.164;8.210;2023-08-21T05:23:45;16.80;99.90
9033;DHT22;4551;53.164;8.210;2023-08-21T05:26:13;16.80;99.90
9033;DHT22;4551;53.164;8.210;2023-08-21T05:28:41;16.90;99.90
9033;DHT22;4551;53.164;8.210;2023-08-21T05:31:09;16.90;99.90
9033;DHT22;4551;53.164;8.210;2023-08-21T05:33:37;16.90;99.90
9033;DHT22;4551;53.164;8.210;2023-08-21T05:36:08;17.00;99.90
9033;DHT22;4551;53.164;8.210;2023-08-21T05:38:36;17.00;99.90
9033;DHT22;4551;53.164;8.210;2023-08-21T05:41:06;17.00;99.90
9033;DHT22;4551;53.164;8.210;2023-08-21T05:43:34;17.00;99.90
9033;DHT22;4551;53.164;8.210;2023-08-21T05:46:02;17.10;99.90
9033;DHT22;4551;53.164;8.210;2023-08-21T05:48:33;17.10;99.90
9033;DHT22;4551;53.164;8.210;2023-08-21T05:51:01;17.10;99.90
9033;DHT22;4551;53.164;8.210;2023-08-21T05:53:30;17.20;99.90
9033;DHT22;4551;53.164;8.210;2023-08-21T05:55:58;17.20;99.90
9033;DHT22;4551;53.164;8.210;2023-08-21T05:58:27;17.20;99.90
9033;DHT22;4551;53.164;8.210;2023-08-21T06:00:58;17.30;99.90
9033;DHT22;4551;53.164;8.210;2023-08-21T06:03:26;17.30;99.90
9033;DHT22;4551;53.164;8.210;2023-08-21T06:05:54;17.30;99.90
9033;DHT22;4551;53.164;8.210;2023-08-21T06:08:22;17.30;99.90
9033;DHT22;4551;53.164;8.210;2023-08-21T06:10:51;17.40;99.90
9033;DHT22;4551;53.164;8.210;2023-08-21T06:13:19;17.40;99.90
9033;DHT22;4551;53.164;8.210;2023-08-21T06:15:48;17.50;99.90
9033;DHT22;4551;53.164;8.210;2023-08-21T06:18:16;17.60;99.90
9033;DHT22;4551;53.164;8.210;2023-08-21T06:20:44;17.50;99.90
9033;DHT22;4551;53.164;8.210;2023-08-21T06:23:12;17.60;99.90
9033;DHT22;4551;53.164;8.210;2023-08-21T06:25:41;17.70;99.90
9033;DHT22;4551;53.164;8.210;2023-08-21T06:28:11;17.70;99.90
9033;DHT22;4551;53.164;8.210;2023-08-21T06:30:39;17.70;99.90
9033;DHT22;4551;53.164;8.210;2023-08-21T06:33:08;17.70;99.90
9033;DHT22;4551;53.164;8.210;2023-08-21T06:35:36;17.80;99.90
9033;DHT22;4551;53.164;8.210;2023-08-21T06:38:05;17.80;99.90
9033;DHT22;4551;53.164;8.210;2023-08-21T06:40:33;17.80;99.90
9033;DHT22;4551;53.164;8.210;2023-08-21T06:43:01;17.90;99.90
9033;DHT22;4551;53.164;8.210;2023-08-21T06:45:32;17.90;99.90
9033;DHT22;4551;53.164;8.210;2023-08-21T06:48:01;18.00;99.90
9033;DHT22;4551;53.164;8.210;2023-08-21T06:50:31;18.00;99.90
9033;DHT22;4551;53.164;8.210;2023-08-21T06:52:59;18.00;99.90
9033;DHT22;4551;53.164;8.210;2023-08-21T06:55:27;18.00;99.90
9033;DHT22;4551;53.164;8.210;2023-08-21T06:57:55;18.10;99.90
9033;DHT22;4551;53.164;8.210;2023-08-21T07:00:23;18.10;99.90
9033;DHT22;4551;53.164;8.210;2023-08-21T07:02:51;18.10;99.90
9033;DHT22;4551;53.164;8.210;2023-08-21T07:05:19;18.20;99.90
9033;DHT22;4551;53.164;8.210;2023-08-21T07:07:49;18.30;99.90
9033;DHT22;4551;53.164;8.210;2023-08-21T07:10:17;18.30;99.90
9033;DHT22;4551;53.164;8.210;2023-08-21T07:12:45;18.30;99.90
9033;DHT22;4551;53.164;8.210;2023-08-21T07:15:13;18.40;99.90
9033;DHT22;4551;53.164;8.210;2023-08-21T07:17:42;18.40;99.90
9033;DHT22;4551;53.164;8.210;2023-08-21T07:20:10;18.40;99.90
9033;DHT22;4551;53.164;8.210;2023-08-21T07:22:38;18.50;99.90
9033;DHT22;4551;53.164;8.210;2023-08-21T07:25:08;18.60;99.90
9033;DHT22;4551;53.164;8.210;2023-08-21T07:27:36;18.50;99.90
9033;DHT22;4551;53.164;8.210;2023-08-21T07:30:05;18.60;99.90
9033;DHT22;4551;53.164;8.210;2023-08-21T07:32:34;18.60;99.90
9033;DHT22;4551;53.164;8.210;2023-08-21T07:35:02;18.60;99.90
9033;DHT22;4551;53.164;8.210;2023-08-21T07:37:30;18.70;99.90
9033;DHT22;4551;53.164;8.210;2023-08-21T07:39:58;18.70;99.90
9033;DHT22;4551;53.164;8.210;2023-08-21T07:42:28;18.70;99.90
9033;DHT22;4551;53.164;8.210;2023-08-21T07:44:56;18.80;99.90
9033;DHT22;4551;53.164;8.210;2023-08-21T07:47:26;18.80;99.90
9033;DHT22;4551;53.164;8.210;2023-08-21T07:49:54;18.80;99.90
9033;DHT22;4551;53.164;8.210;2023-08-21T07:52:24;18.80;99.90
9033;DHT22;4551;53.164;8.210;2023-08-21T07:54:52;18.90;99.90
9033;DHT22;4551;53.164;8.210;2023-08-21T07:57:20;18.90;99.90
9033;DHT22;4551;53.164;8.210;2023-08-21T07:59:50;19.00;99.90
9033;DHT22;4551;53.164;8.210;2023-08-21T08:02:21;19.00;99.90
9033;DHT22;4551;53.164;8.210;2023-08-21T08:04:49;19.00;99.90
9033;DHT22;4551;53.164;8.210;2023-08-21T08:07:17;19.10;99.90
9033;DHT22;4551;53.164;8.210;2023-08-21T08:09:59;19.10;99.90
9033;DHT22;4551;53.164;8.210;2023-08-21T08:12:27;19.20;99.90
9033;DHT22;4551;53.164;8.210;2023-08-21T08:14:56;19.20;99.90
9033;DHT22;4551;53.164;8.210;2023-08-21T08:17:24;19.30;99.90
9033;DHT22;4551;53.164;8.210;2023-08-21T08:19:53;19.30;99.90
9033;DHT22;4551;53.164;8.210;2023-08-21T08:22:21;19.30;99.90
9033;DHT22;4551;53.164;8.210;2023-08-21T08:24:49;19.40;99.90
9033;DHT22;4551;53.164;8.210;2023-08-21T08:27:17;19.40;99.90
9033;DHT22;4551;53.164;8.210;2023-08-21T08:29:45;19.50;99.90
9033;DHT22;4551;53.164;8.210;2023-08-21T08:32:14;19.50;99.90
9033;DHT22;4551;53.164;8.210;2023-08-21T08:34:42;19.50;99.90
9033;DHT22;4551;53.164;8.210;2023-08-21T08:37:13;19.50;99.90
9033;DHT22;4551;53.164;8.210;2023-08-21T08:39:41;19.60;99.90
9033;DHT22;4551;53.164;8.210;2023-08-21T08:42:09;19.70;99.90
9033;DHT22;4551;53.164;8.210;2023-08-21T08:44:38;19.70;99.90
9033;DHT22;4551;53.164;8.210;2023-08-21T08:47:08;19.80;99.90
9033;DHT22;4551;53.164;8.210;2023-08-21T08:49:37;19.80;99.90
9033;DHT22;4551;53.164;8.210;2023-08-21T08:52:05;19.80;99.90
9033;DHT22;4551;53.164;8.210;2023-08-21T08:54:34;19.80;99.90
9033;DHT22;4551;53.164;8.210;2023-08-21T08:57:05;19.80;99.90
9033;DHT22;4551;53.164;8.210;2023-08-21T08:59:33;19.80;99.90
9033;DHT22;4551;53.164;8.210;2023-08-21T09:02:01;19.90;99.90
9033;DHT22;4551;53.164;8.210;2023-08-21T09:04:29;19.90;99.90
9033;DHT22;4551;53.164;8.210;2023-08-21T09:07:07;20.00;99.90
9033;DHT22;4551;53.164;8.210;2023-08-21T09:09:38;20.00;99.90
9033;DHT22;4551;53.164;8.210;2023-08-21T09:12:10;20.10;99.90
9033;DHT22;4551;53.164;8.210;2023-08-21T09:14:39;20.40;99.90
9033;DHT22;4551;53.164;8.210;2023-08-21T09:17:07;20.20;99.90
9033;DHT22;4551;53.164;8.210;2023-08-21T09:19:35;20.20;99.90
9033;DHT22;4551;53.164;8.210;2023-08-21T09:22:09;20.30;99.90
9033;DHT22;4551;53.164;8.210;2023-08-21T09:24:37;20.30;99.90
9033;DHT22;4551;53.164;8.210;2023-08-21T09:27:12;20.40;99.90
9033;DHT22;4551;53.164;8.210;2023-08-21T09:29:41;20.50;99.90
9033;DHT22;4551;53.164;8.210;2023-08-21T09:32:09;20.60;99.90
9033;DHT22;4551;53.164;8.210;2023-08-21T09:34:37;20.60;99.90
9033;DHT22;4551;53.164;8.210;2023-08-21T09:37:06;20.70;99.90
9033;DHT22;4551;53.164;8.210;2023-08-21T09:39:36;20.70;99.90
9033;DHT22;4551;53.164;8.210;2023-08-21T09:42:05;20.80;99.90
9033;DHT22;4551;53.164;8.210;2023-08-21T09:44:37;20.80;99.90
9033;DHT22;4551;53.164;8.210;2023-08-21T09:47:07;20.80;99.90
9033;DHT22;4551;53.164;8.210;2023-08-21T09:49:36;20.80;99.90
9033;DHT22;4551;53.164;8.210;2023-08-21T09:52:05;21.20;99.90
9033;DHT22;4551;53.164;8.210;2023-08-21T09:54:53;21.00;99.90
9033;DHT22;4551;53.164;8.210;2023-08-21T09:57:22;21.00;99.90
9033;DHT22;4551;53.164;8.210;2023-08-21T09:59:51;21.10;99.90
9033;DHT22;4551;53.164;8.210;2023-08-21T10:02:20;21.20;99.90
9033;DHT22;4551;53.164;8.210;2023-08-21T10:04:48;21.20;99.90
9033;DHT22;4551;53.164;8.210;2023-08-21T10:07:17;21.30;99.90
9033;DHT22;4551;53.164;8.210;2023-08-21T10:09:49;21.30;99.90
9033;DHT22;4551;53.164;8.210;2023-08-21T10:12:18;21.30;99.90
9033;DHT22;4551;53.164;8.210;2023-08-21T10:14:47;21.30;99.90
9033;DHT22;4551;53.164;8.210;2023-08-21T10:17:15;21.40;99.90
9033;DHT22;4551;53.164;8.210;2023-08-21T10:19:49;21.50;99.90
9033;DHT22;4551;53.164;8.210;2023-08-21T10:25:01;21.50;99.90
9033;DHT22;4551;53.164;8.210;2023-08-21T10:27:30;21.60;99.90
9033;DHT22;4551;53.164;8.210;2023-08-21T10:29:58;21.60;99.90
9033;DHT22;4551;53.164;8.210;2023-08-21T10:32:26;21.70;99.90
9033;DHT22;4551;53.164;8.210;2023-08-21T10:34:54;21.70;99.90
9033;DHT22;4551;53.164;8.210;2023-08-21T10:37:24;21.80;99.90
9033;DHT22;4551;53.164;8.210;2023-08-21T10:39:54;21.80;99.90
9033;DHT22;4551;53.164;8.210;2023-08-21T10:42:37;21.80;99.90
9033;DHT22;4551;53.164;8.210;2023-08-21T10:45:10;21.90;99.90
9033;DHT22;4551;53.164;8.210;2023-08-21T10:47:39;22.00;99.90
9033;DHT22;4551;53.164;8.210;2023-08-21T10:50:08;22.10;99.90
9033;DHT22;4551;53.164;8.210;2023-08-21T10:52:37;22.10;99.90
9033;DHT22;4551;53.164;8.210;2023-08-21T10:55:07;22.20;99.90
9033;DHT22;4551;53.164;8.210;2023-08-21T10:57:37;22.20;99.90
9033;DHT22;4551;53.164;8.210;2023-08-21T11:00:08;22.30;99.90
9033;DHT22;4551;53.164;8.210;2023-08-21T11:02:38;22.30;99.90
9033;DHT22;4551;53.164;8.210;2023-08-21T11:05:07;22.40;99.90
9033;DHT22;4551;53.164;8.210;2023-08-21T11:07:36;22.50;99.90
9033;DHT22;4551;53.164;8.210;2023-08-21T11:10:06;22.60;99.90
9033;DHT22;4551;53.164;8.210;2023-08-21T11:12:39;22.60;99.90
9033;DHT22;4551;53.164;8.210;2023-08-21T11:15:15;22.60;99.90
9033;DHT22;4551;53.164;8.210;2023-08-21T11:17:54;22.70;99.90
9033;DHT22;4551;53.164;8.210;2023-08-21T11:20:22;22.70;99.90
9033;DHT22;4551;53.164;8.210;2023-08-21T11:22:53;22.70;99.90
9033;DHT22;4551;53.164;8.210;2023-08-21T11:25:23;22.80;99.90
9033;DHT22;4551;53.164;8.210;2023-08-21T11:27:53;22.90;99.90
9033;DHT22;4551;53.164;8.210;2023-08-21T11:30:22;23.00;99.90
9033;DHT22;4551;53.164;8.210;2023-08-21T11:33:04;23.00;99.90
9033;DHT22;4551;53.164;8.210;2023-08-21T11:35:32;23.00;99.90
9033;DHT22;4551;53.164;8.210;2023-08-21T11:38:00;23.10;99.90
9033;DHT22;4551;53.164;8.210;2023-08-21T11:40:28;23.20;99.90
9033;DHT22;4551;53.164;8.210;2023-08-21T11:43:00;23.30;99.90
9033;DHT22;4551;53.164;8.210;2023-08-21T11:45:30;23.40;99.90
9033;DHT22;4551;53.164;8.210;2023-08-21T11:48:11;23.50;99.90
9033;DHT22;4551;53.164;8.210;2023-08-21T11:50:39;23.60;99.90
9033;DHT22;4551;53.164;8.210;2023-08-21T11:53:11;23.70;99.90
9033;DHT22;4551;53.164;8.210;2023-08-21T11:55:39;23.80;99.90
9033;DHT22;4551;53.164;8.210;2023-08-21T11:58:09;23.90;99.90
9033;DHT22;4551;53.164;8.210;2023-08-21T12:00:37;24.00;99.90
9033;DHT22;4551;53.164;8.210;2023-08-21T12:03:07;24.10;99.90
9033;DHT22;4551;53.164;8.210;2023-08-21T12:05:42;24.20;99.90
9033;DHT22;4551;53.164;8.210;2023-08-21T12:08:10;24.20;99.90
9033;DHT22;4551;53.164;8.210;2023-08-21T12:10:38;24.20;99.90
9033;DHT22;4551;53.164;8.210;2023-08-21T12:13:09;24.30;99.90
9033;DHT22;4551;53.164;8.210;2023-08-21T12:15:37;24.40;99.90
9033;DHT22;4551;53.164;8.210;2023-08-21T12:18:05;24.60;99.90
9033;DHT22;4551;53.164;8.210;2023-08-21T12:20:33;24.70;99.90
9033;DHT22;4551;53.164;8.210;2023-08-21T12:23:01;24.80;99.90
9033;DHT22;4551;53.164;8.210;2023-08-21T12:25:29;24.90;99.90
9033;DHT22;4551;53.164;8.210;2023-08-21T12:27:58;25.10;99.90
9033;DHT22;4551;53.164;8.210;2023-08-21T12:30:37;25.10;99.90
9033;DHT22;4551;53.164;8.210;2023-08-21T12:33:05;25.20;99.90
9033;DHT22;4551;53.164;8.210;2023-08-21T12:35:48;25.30;99.90
9033;DHT22;4551;53.164;8.210;2023-08-21T12:38:16;25.30;99.90
9033;DHT22;4551;53.164;8.210;2023-08-21T12:40:44;25.30;99.90
9033;DHT22;4551;53.164;8.210;2023-08-21T12:43:12;25.40;99.90
9033;DHT22;4551;53.164;8.210;2023-08-21T12:45:44;25.60;99.90
9033;DHT22;4551;53.164;8.210;2023-08-21T12:48:13;25.80;99.90
9033;DHT22;4551;53.164;8.210;2023-08-21T12:50:41;25.80;99.90
9033;DHT22;4551;53.164;8.210;2023-08-21T12:53:09;25.90;99.90
9033;DHT22;4551;53.164;8.210;2023-08-21T12:55:37;25.80;99.90
9033;DHT22;4551;53.164;8.210;2023-08-21T12:58:05;26.00;99.90
9033;DHT22;4551;53.164;8.210;2023-08-21T13:00:33;26.20;99.90
9033;DHT22;4551;53.164;8.210;2023-08-21T13:03:03;26.30;99.90
9033;DHT22;4551;53.164;8.210;2023-08-21T13:05:31;26.50;99.90
9033;DHT22;4551;53.164;8.210;2023-08-21T13:08:01;26.70;99.90
9033;DHT22;4551;53.164;8.210;2023-08-21T13:10:43;26.80;99.90
9033;DHT22;4551;53.164;8.210;2023-08-21T13:13:11;26.90;99.90
9033;DHT22;4551;53.164;8.210;2023-08-21T13:15:39;26.70;99.90
9033;DHT22;4551;53.164;8.210;2023-08-21T13:18:12;26.80;99.90
9033;DHT22;4551;53.164;8.210;2023-08-21T13:20:41;26.90;99.90
9033;DHT22;4551;53.164;8.210;2023-08-21T13:23:09;27.10;99.90
9033;DHT22;4551;53.164;8.210;2023-08-21T13:25:37;27.20;99.90
9033;DHT22;4551;53.164;8.210;2023-08-21T13:28:05;27.30;99.90
9033;DHT22;4551;53.164;8.210;2023-08-21T13:30:37;27.50;99.90
9033;DHT22;4551;53.164;8.210;2023-08-21T13:33:05;27.60;99.90
9033;DHT22;4551;53.164;8.210;2023-08-21T13:35:34;27.60;99.90
9033;DHT22;4551;53.164;8.210;2023-08-21T13:38:03;27.80;99.90
9033;DHT22;4551;53.164;8.210;2023-08-21T13:40:32;28.00;99.90
9033;DHT22;4551;53.164;8.210;2023-08-21T13:43:00;28.10;99.90
9033;DHT22;4551;53.164;8.210;2023-08-21T13:45:30;28.10;99.90
9033;DHT22;4551;53.164;8.210;2023-08-21T13:47:58;28.50;99.90
9033;DHT22;4551;53.164;8.210;2023-08-21T13:50:26;28.70;99.90
9033;DHT22;4551;53.164;8.210;2023-08-21T13:52:56;29.00;99.90
9033;DHT22;4551;53.164;8.210;2023-08-21T13:55:24;29.20;99.90
9033;DHT22;4551;53.164;8.210;2023-08-21T13:57:52;29.50;99.90
9033;DHT22;4551;53.164;8.210;2023-08-21T14:00:20;29.50;99.90
9033;DHT22;4551;53.164;8.210;2023-08-21T14:02:49;29.70;99.90
9033;DHT22;4551;53.164;8.210;2023-08-21T14:05:18;30.00;99.90
9033;DHT22;4551;53.164;8.210;2023-08-21T14:07:46;30.30;99.90
9033;DHT22;4551;53.164;8.210;2023-08-21T14:10:15;30.50;99.90
9033;DHT22;4551;53.164;8.210;2023-08-21T14:12:43;30.40;99.90
9033;DHT22;4551;53.164;8.210;2023-08-21T14:15:11;30.50;99.90
9033;DHT22;4551;53.164;8.210;2023-08-21T14:17:39;30.70;99.90
9033;DHT22;4551;53.164;8.210;2023-08-21T14:20:09;30.90;99.90
9033;DHT22;4551;53.164;8.210;2023-08-21T14:22:37;30.90;99.90
9033;DHT22;4551;53.164;8.210;2023-08-21T14:25:06;31.00;99.90
9033;DHT22;4551;53.164;8.210;2023-08-21T14:27:35;31.20;99.90
9033;DHT22;4551;53.164;8.210;2023-08-21T14:30:04;31.40;99.90
9033;DHT22;4551;53.164;8.210;2023-08-21T14:32:34;31.50;99.90
9033;DHT22;4551;53.164;8.210;2023-08-21T14:35:04;31.70;99.90
9033;DHT22;4551;53.164;8.210;2023-08-21T14:37:34;31.80;99.90
9033;DHT22;4551;53.164;8.210;2023-08-21T14:40:02;31.90;99.90
9033;DHT22;4551;53.164;8.210;2023-08-21T14:42:35;31.70;99.90
9033;DHT22;4551;53.164;8.210;2023-08-21T14:45:04;31.50;99.90
9033;DHT22;4551;53.164;8.210;2023-08-21T14:47:32;31.30;99.90
9033;DHT22;4551;53.164;8.210;2023-08-21T14:50:02;31.10;99.90
9033;DHT22;4551;53.164;8.210;2023-08-21T14:52:31;30.80;99.90
9033;DHT22;4551;53.164;8.210;2023-08-21T14:54:59;30.50;99.90
9033;DHT22;4551;53.164;8.210;2023-08-21T14:57:29;30.50;99.90
9033;DHT22;4551;53.164;8.210;2023-08-21T14:59:58;30.30;99.90
9033;DHT22;4551;53.164;8.210;2023-08-21T15:02:26;30.20;99.90
9033;DHT22;4551;53.164;8.210;2023-08-21T15:04:54;30.10;99.90
9033;DHT22;4551;53.164;8.210;2023-08-21T15:07:22;29.90;99.90
9033;DHT22;4551;53.164;8.210;2023-08-21T15:09:50;29.80;99.90
9033;DHT22;4551;53.164;8.210;2023-08-21T15:12:18;29.70;99.90
9033;DHT22;4551;53.164;8.210;2023-08-21T15:14:47;29.70;99.90
9033;DHT22;4551;53.164;8.210;2023-08-21T15:17:16;29.50;99.90
9033;DHT22;4551;53.164;8.210;2023-08-21T15:19:46;29.50;99.90
9033;DHT22;4551;53.164;8.210;2023-08-21T15:22:15;29.80;99.90
9033;DHT22;4551;53.164;8.210;2023-08-21T15:24:43;30.00;99.90
9033;DHT22;4551;53.164;8.210;2023-08-21T15:27:11;30.20;99.90
9033;DHT22;4551;53.164;8.210;2023-08-21T15:29:40;30.40;99.90
9033;DHT22;4551;53.164;8.210;2023-08-21T15:32:08;30.40;99.90
9033;DHT22;4551;53.164;8.210;2023-08-21T15:34:38;30.40;99.90
9033;DHT22;4551;53.164;8.210;2023-08-21T15:37:06;30.50;99.90
9033;DHT22;4551;53.164;8.210;2023-08-21T15:39:35;30.60;99.90
9033;DHT22;4551;53.164;8.210;2023-08-21T15:42:03;30.60;99.90
9033;DHT22;4551;53.164;8.210;2023-08-21T15:44:31;30.40;99.90
9033;DHT22;4551;53.164;8.210;2023-08-21T15:46:59;30.40;99.90
9033;DHT22;4551;53.164;8.210;2023-08-21T15:49:48;30.40;99.90
9033;DHT22;4551;53.164;8.210;2023-08-21T15:52:16;30.40;99.90
9033;DHT22;4551;53.164;8.210;2023-08-21T15:54:44;30.50;99.90
9033;DHT22;4551;53.164;8.210;2023-08-21T15:57:17;30.60;99.90
9033;DHT22;4551;53.164;8.210;2023-08-21T15:59:45;30.50;99.90
9033;DHT22;4551;53.164;8.210;2023-08-21T16:02:13;30.60;99.90
9033;DHT22;4551;53.164;8.210;2023-08-21T16:04:41;30.70;99.90
9033;DHT22;4551;53.164;8.210;2023-08-21T16:07:10;30.80;99.90
9033;DHT22;4551;53.164;8.210;2023-08-21T16:09:38;30.80;99.90
9033;DHT22;4551;53.164;8.210;2023-08-21T16:12:07;30.70;99.90
9033;DHT22;4551;53.164;8.210;2023-08-21T16:14:35;30.80;99.90
9033;DHT22;4551;53.164;8.210;2023-08-21T16:17:03;30.90;99.90